sensor_id;sensor_type;location;lat;lon;timestamp;P1;durP1;ratioP1;P2;durP2;ratioP2
31537;SDS011;18147;51.952;6.146;2022-10-17T00:01:29;21.23;;;12.18;;
31537;SDS011;18147;51.952;6.146;2022-10-17T00:03:54;25.98;;;11.23;;
31537;SDS011;18147;51.952;6.146;2022-10-17T00:06:20;21.90;;;12.85;;
31537;SDS011;18147;51.952;6.146;2022-10-17T00:08:45;22.13;;;12.13;;
31537;SDS011;18147;51.952;6.146;2022-10-17T00:11:15;26.13;;;11.32;;
31537;SDS011;18147;51.952;6.146;2022-10-17T00:13:44;16.58;;;11.00;;
31537;SDS011;18147;51.952;6.146;2022-10-17T00:16:10;21.75;;;10.73;;
31537;SDS011;18147;51.952;6.146;2022-10-17T00:18:36;24.05;;;10.60;;
31537;SDS011;18147;51.952;6.146;2022-10-17T00:21:02;19.50;;;10.15;;
31537;SDS011;18147;51.952;6.146;2022-10-17T00:23:28;18.40;;;10.48;;
31537;SDS011;18147;51.952;6.146;2022-10-17T00:26:00;18.25;;;10.20;;
31537;SDS011;18147;51.952;6.146;2022-10-17T00:28:28;18.45;;;10.45;;
31537;SDS011;18147;51.952;6.146;2022-10-17T00:30:58;20.42;;;10.75;;
31537;SDS011;18147;51.952;6.146;2022-10-17T00:33:26;18.25;;;10.10;;
31537;SDS011;18147;51.952;6.146;2022-10-17T00:38:42;19.48;;;9.73;;
31537;SDS011;18147;51.952;6.146;2022-10-17T00:41:09;18.13;;;10.35;;
31537;SDS011;18147;51.952;6.146;2022-10-17T00:46:26;19.73;;;10.52;;
31537;SDS011;18147;51.952;6.146;2022-10-17T00:48:54;20.27;;;10.98;;
31537;SDS011;18147;51.952;6.146;2022-10-17T00:51:23;22.60;;;10.20;;
31537;SDS011;18147;51.952;6.146;2022-10-17T00:53:54;22.33;;;10.25;;
31537;SDS011;18147;51.952;6.146;2022-10-17T00:56:21;23.13;;;11.23;;
31537;SDS011;18147;51.952;6.146;2022-10-17T00:58:47;22.90;;;10.27;;
31537;SDS011;18147;51.952;6.146;2022-10-17T01:01:13;25.15;;;10.10;;
31537;SDS011;18147;51.952;6.146;2022-10-17T01:03:38;21.42;;;10.95;;
31537;SDS011;18147;51.952;6.146;2022-10-17T01:06:04;22.60;;;10.18;;
31537;SDS011;18147;51.952;6.146;2022-10-17T01:08:29;18.58;;;9.90;;
31537;SDS011;18147;51.952;6.146;2022-10-17T01:16:51;21.98;;;11.32;;
31537;SDS011;18147;51.952;6.146;2022-10-17T01:30:42;19.77;;;11.00;;
31537;SDS011;18147;51.952;6.146;2022-10-17T01:33:16;19.38;;;10.80;;
31537;SDS011;18147;51.952;6.146;2022-10-17T01:36:15;25.10;;;10.95;;
31537;SDS011;18147;51.952;6.146;2022-10-17T01:38:59;25.35;;;11.57;;
31537;SDS011;18147;51.952;6.146;2022-10-17T01:41:34;27.70;;;13.60;;
31537;SDS011;18147;51.952;6.146;2022-10-17T01:44:03;19.90;;;11.83;;
31537;SDS011;18147;51.952;6.146;2022-10-17T01:46:40;20.60;;;11.85;;
31537;SDS011;18147;51.952;6.146;2022-10-17T01:49:10;22.58;;;12.00;;
31537;SDS011;18147;51.952;6.146;2022-10-17T01:51:53;22.88;;;11.20;;
31537;SDS011;18147;51.952;6.146;2022-10-17T01:54:26;20.08;;;10.90;;
31537;SDS011;18147;51.952;6.146;2022-10-17T01:59:30;19.67;;;11.68;;
31537;SDS011;18147;51.952;6.146;2022-10-17T02:02:03;24.70;;;12.18;;
31537;SDS011;18147;51.952;6.146;2022-10-17T02:04:30;23.90;;;12.02;;
31537;SDS011;18147;51.952;6.146;2022-10-17T02:06:55;24.60;;;13.02;;
31537;SDS011;18147;51.952;6.146;2022-10-17T02:09:22;22.08;;;12.18;;
31537;SDS011;18147;51.952;6.146;2022-10-17T02:11:52;21.83;;;13.02;;
31537;SDS011;18147;51.952;6.146;2022-10-17T02:17:10;24.35;;;12.90;;
31537;SDS011;18147;51.952;6.146;2022-10-17T02:19:48;26.20;;;12.85;;
31537;SDS011;18147;51.952;6.146;2022-10-17T02:25:13;20.67;;;12.75;;
31537;SDS011;18147;51.952;6.146;2022-10-17T02:28:10;29.38;;;13.77;;
31537;SDS011;18147;51.952;6.146;2022-10-17T02:33:38;23.90;;;12.93;;
31537;SDS011;18147;51.952;6.146;2022-10-17T02:36:10;23.33;;;12.27;;
31537;SDS011;18147;51.952;6.146;2022-10-17T02:41:08;21.25;;;11.88;;
31537;SDS011;18147;51.952;6.146;2022-10-17T02:43:37;24.23;;;12.93;;
31537;SDS011;18147;51.952;6.146;2022-10-17T02:46:04;23.83;;;12.80;;
31537;SDS011;18147;51.952;6.146;2022-10-17T02:51:07;23.10;;;13.38;;
31537;SDS011;18147;51.952;6.146;2022-10-17T02:53:51;23.65;;;12.45;;
31537;SDS011;18147;51.952;6.146;2022-10-17T02:56:25;23.25;;;12.90;;
31537;SDS011;18147;51.952;6.146;2022-10-17T02:58:55;22.23;;;13.45;;
31537;SDS011;18147;51.952;6.146;2022-10-17T03:01:23;21.92;;;13.02;;
31537;SDS011;18147;51.952;6.146;2022-10-17T03:03:49;23.77;;;13.10;;
31537;SDS011;18147;51.952;6.146;2022-10-17T03:06:15;20.45;;;12.55;;
31537;SDS011;18147;51.952;6.146;2022-10-17T03:08:40;21.55;;;12.68;;
31537;SDS011;18147;51.952;6.146;2022-10-17T03:11:06;23.02;;;13.23;;
31537;SDS011;18147;51.952;6.146;2022-10-17T03:13:32;24.63;;;13.45;;
31537;SDS011;18147;51.952;6.146;2022-10-17T03:15:58;22.85;;;12.52;;
31537;SDS011;18147;51.952;6.146;2022-10-17T03:18:24;19.67;;;12.77;;
31537;SDS011;18147;51.952;6.146;2022-10-17T03:20:54;24.67;;;13.10;;
31537;SDS011;18147;51.952;6.146;2022-10-17T03:23:19;23.50;;;12.70;;
31537;SDS011;18147;51.952;6.146;2022-10-17T03:25:45;22.95;;;13.90;;
31537;SDS011;18147;51.952;6.146;2022-10-17T03:28:12;24.48;;;12.27;;
31537;SDS011;18147;51.952;6.146;2022-10-17T03:30:38;26.75;;;12.40;;
31537;SDS011;18147;51.952;6.146;2022-10-17T03:33:04;27.42;;;13.23;;
31537;SDS011;18147;51.952;6.146;2022-10-17T03:35:29;25.00;;;13.07;;
31537;SDS011;18147;51.952;6.146;2022-10-17T03:37:55;22.17;;;12.30;;
31537;SDS011;18147;51.952;6.146;2022-10-17T03:40:21;23.17;;;12.65;;
31537;SDS011;18147;51.952;6.146;2022-10-17T03:42:47;24.40;;;12.18;;
31537;SDS011;18147;51.952;6.146;2022-10-17T03:45:12;21.95;;;12.85;;
31537;SDS011;18147;51.952;6.146;2022-10-17T03:47:38;19.25;;;12.55;;
31537;SDS011;18147;51.952;6.146;2022-10-17T03:50:04;21.83;;;12.25;;
31537;SDS011;18147;51.952;6.146;2022-10-17T03:52:32;22.80;;;13.20;;
31537;SDS011;18147;51.952;6.146;2022-10-17T03:54:59;22.17;;;11.80;;
31537;SDS011;18147;51.952;6.146;2022-10-17T03:57:24;24.75;;;13.35;;
31537;SDS011;18147;51.952;6.146;2022-10-17T03:59:50;19.60;;;12.85;;
31537;SDS011;18147;51.952;6.146;2022-10-17T04:02:20;25.15;;;13.90;;
31537;SDS011;18147;51.952;6.146;2022-10-17T04:04:45;21.52;;;11.88;;
31537;SDS011;18147;51.952;6.146;2022-10-17T04:07:11;24.45;;;11.75;;
31537;SDS011;18147;51.952;6.146;2022-10-17T04:09:40;21.20;;;12.55;;
31537;SDS011;18147;51.952;6.146;2022-10-17T04:12:17;23.08;;;11.38;;
31537;SDS011;18147;51.952;6.146;2022-10-17T04:14:43;23.48;;;12.52;;
31537;SDS011;18147;51.952;6.146;2022-10-17T04:17:08;17.50;;;11.60;;
31537;SDS011;18147;51.952;6.146;2022-10-17T04:19:35;18.75;;;12.05;;
31537;SDS011;18147;51.952;6.146;2022-10-17T04:22:00;19.42;;;12.10;;
31537;SDS011;18147;51.952;6.146;2022-10-17T04:24:29;22.83;;;11.65;;
31537;SDS011;18147;51.952;6.146;2022-10-17T04:27:04;20.15;;;11.30;;
31537;SDS011;18147;51.952;6.146;2022-10-17T04:29:31;19.30;;;11.77;;
31537;SDS011;18147;51.952;6.146;2022-10-17T04:32:23;23.05;;;10.23;;
31537;SDS011;18147;51.952;6.146;2022-10-17T04:34:57;19.77;;;10.80;;
31537;SDS011;18147;51.952;6.146;2022-10-17T04:37:22;18.77;;;11.50;;
31537;SDS011;18147;51.952;6.146;2022-10-17T04:39:50;21.27;;;10.45;;
31537;SDS011;18147;51.952;6.146;2022-10-17T04:42:15;18.83;;;11.30;;
31537;SDS011;18147;51.952;6.146;2022-10-17T04:44:41;20.90;;;10.68;;
31537;SDS011;18147;51.952;6.146;2022-10-17T04:47:07;16.15;;;10.32;;
31537;SDS011;18147;51.952;6.146;2022-10-17T04:49:33;23.02;;;11.10;;
31537;SDS011;18147;51.952;6.146;2022-10-17T04:52:06;19.70;;;11.57;;
31537;SDS011;18147;51.952;6.146;2022-10-17T04:54:41;17.33;;;10.95;;
31537;SDS011;18147;51.952;6.146;2022-10-17T04:57:08;20.38;;;10.75;;
31537;SDS011;18147;51.952;6.146;2022-10-17T04:59:34;20.45;;;11.15;;
31537;SDS011;18147;51.952;6.146;2022-10-17T05:02:17;23.63;;;10.63;;
31537;SDS011;18147;51.952;6.146;2022-10-17T05:04:44;20.05;;;11.80;;
31537;SDS011;18147;51.952;6.146;2022-10-17T05:07:11;22.17;;;11.40;;
31537;SDS011;18147;51.952;6.146;2022-10-17T05:09:45;20.17;;;11.50;;
31537;SDS011;18147;51.952;6.146;2022-10-17T05:12:11;19.25;;;11.27;;
31537;SDS011;18147;51.952;6.146;2022-10-17T05:14:39;18.92;;;11.27;;
31537;SDS011;18147;51.952;6.146;2022-10-17T05:17:05;17.27;;;10.63;;
31537;SDS011;18147;51.952;6.146;2022-10-17T05:19:30;18.77;;;10.95;;
31537;SDS011;18147;51.952;6.146;2022-10-17T05:21:56;19.27;;;11.50;;
31537;SDS011;18147;51.952;6.146;2022-10-17T05:24:21;19.50;;;11.57;;
31537;SDS011;18147;51.952;6.146;2022-10-17T05:26:48;17.83;;;11.15;;
31537;SDS011;18147;51.952;6.146;2022-10-17T05:29:15;21.58;;;13.27;;
31537;SDS011;18147;51.952;6.146;2022-10-17T05:31:47;22.10;;;12.53;;
31537;SDS011;18147;51.952;6.146;2022-10-17T05:34:12;19.55;;;10.98;;
31537;SDS011;18147;51.952;6.146;2022-10-17T05:36:38;21.38;;;11.45;;
31537;SDS011;18147;51.952;6.146;2022-10-17T05:39:04;30.20;;;12.43;;
31537;SDS011;18147;51.952;6.146;2022-10-17T05:41:31;19.52;;;10.77;;
31537;SDS011;18147;51.952;6.146;2022-10-17T05:43:57;25.08;;;12.18;;
31537;SDS011;18147;51.952;6.146;2022-10-17T05:46:48;21.40;;;11.73;;
31537;SDS011;18147;51.952;6.146;2022-10-17T05:49:15;20.40;;;11.75;;
31537;SDS011;18147;51.952;6.146;2022-10-17T05:51:41;27.33;;;11.18;;
31537;SDS011;18147;51.952;6.146;2022-10-17T05:54:07;18.05;;;11.05;;
31537;SDS011;18147;51.952;6.146;2022-10-17T05:56:34;21.38;;;12.57;;
31537;SDS011;18147;51.952;6.146;2022-10-17T05:59:00;27.17;;;12.07;;
31537;SDS011;18147;51.952;6.146;2022-10-17T06:01:36;23.00;;;12.40;;
31537;SDS011;18147;51.952;6.146;2022-10-17T06:04:01;18.08;;;10.80;;
31537;SDS011;18147;51.952;6.146;2022-10-17T06:06:27;17.05;;;10.95;;
31537;SDS011;18147;51.952;6.146;2022-10-17T06:08:53;20.95;;;11.82;;
31537;SDS011;18147;51.952;6.146;2022-10-17T06:11:25;15.95;;;10.30;;
31537;SDS011;18147;51.952;6.146;2022-10-17T06:13:50;19.75;;;11.27;;
31537;SDS011;18147;51.952;6.146;2022-10-17T06:16:21;17.33;;;10.45;;
31537;SDS011;18147;51.952;6.146;2022-10-17T06:18:47;19.13;;;11.32;;
31537;SDS011;18147;51.952;6.146;2022-10-17T06:21:14;20.75;;;10.85;;
31537;SDS011;18147;51.952;6.146;2022-10-17T06:23:45;20.95;;;11.77;;
31537;SDS011;18147;51.952;6.146;2022-10-17T06:26:30;25.40;;;11.77;;
31537;SDS011;18147;51.952;6.146;2022-10-17T06:28:55;17.48;;;10.23;;
31537;SDS011;18147;51.952;6.146;2022-10-17T06:31:22;15.95;;;10.35;;
31537;SDS011;18147;51.952;6.146;2022-10-17T06:33:47;18.30;;;10.18;;
31537;SDS011;18147;51.952;6.146;2022-10-17T06:36:13;20.73;;;10.80;;
31537;SDS011;18147;51.952;6.146;2022-10-17T06:38:39;21.73;;;11.95;;
31537;SDS011;18147;51.952;6.146;2022-10-17T06:41:12;21.70;;;10.63;;
31537;SDS011;18147;51.952;6.146;2022-10-17T06:43:42;16.88;;;10.18;;
31537;SDS011;18147;51.952;6.146;2022-10-17T06:46:23;21.42;;;10.35;;
31537;SDS011;18147;51.952;6.146;2022-10-17T06:49:04;16.10;;;10.32;;
31537;SDS011;18147;51.952;6.146;2022-10-17T06:51:41;15.88;;;9.77;;
31537;SDS011;18147;51.952;6.146;2022-10-17T06:54:08;18.73;;;9.60;;
31537;SDS011;18147;51.952;6.146;2022-10-17T06:56:52;21.30;;;9.43;;
31537;SDS011;18147;51.952;6.146;2022-10-17T06:59:35;20.42;;;9.32;;
31537;SDS011;18147;51.952;6.146;2022-10-17T07:02:16;17.25;;;8.57;;
31537;SDS011;18147;51.952;6.146;2022-10-17T07:04:44;14.43;;;9.10;;
31537;SDS011;18147;51.952;6.146;2022-10-17T07:07:11;19.77;;;9.35;;
31537;SDS011;18147;51.952;6.146;2022-10-17T07:09:37;16.52;;;8.77;;
31537;SDS011;18147;51.952;6.146;2022-10-17T07:12:03;14.80;;;8.93;;
31537;SDS011;18147;51.952;6.146;2022-10-17T07:14:32;13.68;;;8.25;;
31537;SDS011;18147;51.952;6.146;2022-10-17T07:16:59;14.20;;;8.48;;
31537;SDS011;18147;51.952;6.146;2022-10-17T07:19:26;13.18;;;8.40;;
31537;SDS011;18147;51.952;6.146;2022-10-17T07:21:52;11.90;;;7.65;;
31537;SDS011;18147;51.952;6.146;2022-10-17T07:24:19;17.27;;;8.48;;
31537;SDS011;18147;51.952;6.146;2022-10-17T07:26:48;16.88;;;8.00;;
31537;SDS011;18147;51.952;6.146;2022-10-17T07:29:14;16.05;;;7.70;;
31537;SDS011;18147;51.952;6.146;2022-10-17T07:31:46;15.20;;;7.75;;
31537;SDS011;18147;51.952;6.146;2022-10-17T07:34:13;14.70;;;8.13;;
31537;SDS011;18147;51.952;6.146;2022-10-17T07:36:38;11.68;;;7.35;;
31537;SDS011;18147;51.952;6.146;2022-10-17T07:39:05;14.07;;;7.65;;
31537;SDS011;18147;51.952;6.146;2022-10-17T07:41:33;12.63;;;7.85;;
31537;SDS011;18147;51.952;6.146;2022-10-17T07:43:59;11.23;;;7.75;;
31537;SDS011;18147;51.952;6.146;2022-10-17T07:46:30;10.40;;;7.57;;
31537;SDS011;18147;51.952;6.146;2022-10-17T07:48:56;14.55;;;6.93;;
31537;SDS011;18147;51.952;6.146;2022-10-17T07:51:21;12.13;;;6.82;;
31537;SDS011;18147;51.952;6.146;2022-10-17T07:53:47;11.73;;;6.93;;
31537;SDS011;18147;51.952;6.146;2022-10-17T07:56:12;11.95;;;6.85;;
31537;SDS011;18147;51.952;6.146;2022-10-17T07:58:37;10.88;;;6.70;;
31537;SDS011;18147;51.952;6.146;2022-10-17T08:01:05;12.68;;;7.03;;
31537;SDS011;18147;51.952;6.146;2022-10-17T08:03:33;11.77;;;7.05;;
31537;SDS011;18147;51.952;6.146;2022-10-17T08:05:59;10.15;;;6.75;;
31537;SDS011;18147;51.952;6.146;2022-10-17T08:08:26;9.45;;;6.47;;
31537;SDS011;18147;51.952;6.146;2022-10-17T08:10:51;12.40;;;6.45;;
31537;SDS011;18147;51.952;6.146;2022-10-17T08:13:19;15.77;;;6.70;;
31537;SDS011;18147;51.952;6.146;2022-10-17T08:15:45;12.02;;;7.20;;
31537;SDS011;18147;51.952;6.146;2022-10-17T08:18:12;12.32;;;6.72;;
31537;SDS011;18147;51.952;6.146;2022-10-17T08:20:38;11.52;;;7.15;;
31537;SDS011;18147;51.952;6.146;2022-10-17T08:23:04;10.05;;;6.75;;
31537;SDS011;18147;51.952;6.146;2022-10-17T08:25:30;13.95;;;7.65;;
31537;SDS011;18147;51.952;6.146;2022-10-17T08:27:56;11.23;;;8.00;;
31537;SDS011;18147;51.952;6.146;2022-10-17T08:30:22;13.05;;;7.28;;
31537;SDS011;18147;51.952;6.146;2022-10-17T08:32:47;13.00;;;6.47;;
31537;SDS011;18147;51.952;6.146;2022-10-17T08:35:13;15.38;;;7.07;;
31537;SDS011;18147;51.952;6.146;2022-10-17T08:37:38;14.88;;;7.25;;
31537;SDS011;18147;51.952;6.146;2022-10-17T08:40:04;11.60;;;7.80;;
31537;SDS011;18147;51.952;6.146;2022-10-17T08:43:14;18.08;;;7.13;;
31537;SDS011;18147;51.952;6.146;2022-10-17T08:45:30;12.20;;;7.20;;
31537;SDS011;18147;51.952;6.146;2022-10-17T08:48:11;14.30;;;7.70;;
31537;SDS011;18147;51.952;6.146;2022-10-17T08:50:44;10.95;;;6.80;;
31537;SDS011;18147;51.952;6.146;2022-10-17T08:53:21;15.50;;;7.72;;
31537;SDS011;18147;51.952;6.146;2022-10-17T08:56:04;12.10;;;7.80;;
31537;SDS011;18147;51.952;6.146;2022-10-17T08:58:42;13.70;;;7.85;;
31537;SDS011;18147;51.952;6.146;2022-10-17T09:01:12;14.45;;;8.90;;
31537;SDS011;18147;51.952;6.146;2022-10-17T09:07:02;15.07;;;8.98;;
31537;SDS011;18147;51.952;6.146;2022-10-17T09:09:46;22.52;;;10.73;;
31537;SDS011;18147;51.952;6.146;2022-10-17T09:18:28;17.88;;;10.73;;
31537;SDS011;18147;51.952;6.146;2022-10-17T09:24:03;18.08;;;10.60;;
31537;SDS011;18147;51.952;6.146;2022-10-17T09:26:36;24.92;;;12.10;;
31537;SDS011;18147;51.952;6.146;2022-10-17T09:29:04;20.25;;;11.02;;
31537;SDS011;18147;51.952;6.146;2022-10-17T09:31:41;19.38;;;9.25;;
31537;SDS011;18147;51.952;6.146;2022-10-17T09:34:11;14.05;;;9.32;;
31537;SDS011;18147;51.952;6.146;2022-10-17T09:36:37;12.25;;;9.10;;
31537;SDS011;18147;51.952;6.146;2022-10-17T09:39:05;22.67;;;9.27;;
31537;SDS011;18147;51.952;6.146;2022-10-17T09:41:41;13.45;;;8.55;;
31537;SDS011;18147;51.952;6.146;2022-10-17T09:44:19;13.38;;;8.43;;
31537;SDS011;18147;51.952;6.146;2022-10-17T09:46:49;16.23;;;8.57;;
31537;SDS011;18147;51.952;6.146;2022-10-17T09:49:22;12.48;;;7.65;;
31537;SDS011;18147;51.952;6.146;2022-10-17T09:51:53;12.93;;;8.15;;
31537;SDS011;18147;51.952;6.146;2022-10-17T09:54:20;18.08;;;8.45;;
31537;SDS011;18147;51.952;6.146;2022-10-17T09:56:55;12.80;;;7.70;;
31537;SDS011;18147;51.952;6.146;2022-10-17T09:59:29;13.95;;;8.32;;
31537;SDS011;18147;51.952;6.146;2022-10-17T10:02:32;15.63;;;8.65;;
31537;SDS011;18147;51.952;6.146;2022-10-17T10:07:22;14.65;;;8.68;;
31537;SDS011;18147;51.952;6.146;2022-10-17T10:09:49;14.50;;;8.68;;
31537;SDS011;18147;51.952;6.146;2022-10-17T10:12:26;16.05;;;9.02;;
31537;SDS011;18147;51.952;6.146;2022-10-17T10:14:53;15.52;;;8.60;;
31537;SDS011;18147;51.952;6.146;2022-10-17T10:17:27;16.20;;;9.27;;
31537;SDS011;18147;51.952;6.146;2022-10-17T10:19:58;16.95;;;9.93;;
31537;SDS011;18147;51.952;6.146;2022-10-17T10:22:23;17.75;;;9.85;;
31537;SDS011;18147;51.952;6.146;2022-10-17T10:27:41;21.55;;;11.50;;
31537;SDS011;18147;51.952;6.146;2022-10-17T10:30:19;21.27;;;12.32;;
31537;SDS011;18147;51.952;6.146;2022-10-17T10:32:49;19.63;;;10.57;;
31537;SDS011;18147;51.952;6.146;2022-10-17T10:35:19;23.23;;;12.10;;
31537;SDS011;18147;51.952;6.146;2022-10-17T10:38:00;22.48;;;12.48;;
31537;SDS011;18147;51.952;6.146;2022-10-17T10:40:30;22.98;;;12.80;;
31537;SDS011;18147;51.952;6.146;2022-10-17T10:42:59;24.52;;;12.48;;
31537;SDS011;18147;51.952;6.146;2022-10-17T10:45:26;23.55;;;12.88;;
31537;SDS011;18147;51.952;6.146;2022-10-17T10:47:54;17.00;;;11.15;;
31537;SDS011;18147;51.952;6.146;2022-10-17T10:50:41;21.98;;;11.73;;
31537;SDS011;18147;51.952;6.146;2022-10-17T10:58:52;17.02;;;10.02;;
31537;SDS011;18147;51.952;6.146;2022-10-17T11:01:05;22.35;;;10.13;;
31537;SDS011;18147;51.952;6.146;2022-10-17T11:04:00;15.65;;;9.10;;
31537;SDS011;18147;51.952;6.146;2022-10-17T11:07:07;17.90;;;9.07;;
31537;SDS011;18147;51.952;6.146;2022-10-17T11:12:22;16.02;;;8.57;;
31537;SDS011;18147;51.952;6.146;2022-10-17T11:14:59;15.93;;;8.90;;
31537;SDS011;18147;51.952;6.146;2022-10-17T11:23:13;18.23;;;8.85;;
31537;SDS011;18147;51.952;6.146;2022-10-17T11:25:56;16.40;;;9.20;;
31537;SDS011;18147;51.952;6.146;2022-10-17T11:28:26;19.83;;;10.55;;
31537;SDS011;18147;51.952;6.146;2022-10-17T11:30:55;18.88;;;9.98;;
31537;SDS011;18147;51.952;6.146;2022-10-17T11:33:28;19.25;;;10.40;;
31537;SDS011;18147;51.952;6.146;2022-10-17T11:36:03;18.80;;;10.10;;
31537;SDS011;18147;51.952;6.146;2022-10-17T11:41:23;17.88;;;11.27;;
31537;SDS011;18147;51.952;6.146;2022-10-17T11:44:18;34.03;;;12.30;;
31537;SDS011;18147;51.952;6.146;2022-10-17T11:47:21;19.50;;;11.48;;
31537;SDS011;18147;51.952;6.146;2022-10-17T11:49:56;22.42;;;12.48;;
31537;SDS011;18147;51.952;6.146;2022-10-17T11:55:10;21.98;;;11.32;;
31537;SDS011;18147;51.952;6.146;2022-10-17T11:57:44;19.38;;;12.40;;
31537;SDS011;18147;51.952;6.146;2022-10-17T12:02:56;19.70;;;11.97;;
31537;SDS011;18147;51.952;6.146;2022-10-17T12:08:16;16.60;;;10.80;;
31537;SDS011;18147;51.952;6.146;2022-10-17T12:15:53;20.48;;;11.15;;
31537;SDS011;18147;51.952;6.146;2022-10-17T12:18:22;17.13;;;11.13;;
31537;SDS011;18147;51.952;6.146;2022-10-17T12:20:58;20.40;;;11.85;;
31537;SDS011;18147;51.952;6.146;2022-10-17T12:23:28;25.10;;;11.98;;
31537;SDS011;18147;51.952;6.146;2022-10-17T12:25:57;22.40;;;11.02;;
31537;SDS011;18147;51.952;6.146;2022-10-17T12:31:09;21.95;;;14.10;;
31537;SDS011;18147;51.952;6.146;2022-10-17T12:33:48;26.02;;;13.75;;
31537;SDS011;18147;51.952;6.146;2022-10-17T12:38:44;20.75;;;13.18;;
31537;SDS011;18147;51.952;6.146;2022-10-17T12:41:14;22.33;;;12.70;;
31537;SDS011;18147;51.952;6.146;2022-10-17T12:43:47;20.38;;;13.20;;
31537;SDS011;18147;51.952;6.146;2022-10-17T12:46:39;22.65;;;14.15;;
31537;SDS011;18147;51.952;6.146;2022-10-17T12:52:04;27.85;;;14.77;;
31537;SDS011;18147;51.952;6.146;2022-10-17T12:55:13;26.95;;;15.70;;
31537;SDS011;18147;51.952;6.146;2022-10-17T12:57:45;27.33;;;15.20;;
31537;SDS011;18147;51.952;6.146;2022-10-17T13:03:04;29.20;;;15.75;;
31537;SDS011;18147;51.952;6.146;2022-10-17T13:05:35;25.70;;;14.65;;
31537;SDS011;18147;51.952;6.146;2022-10-17T13:08:04;28.50;;;15.02;;
31537;SDS011;18147;51.952;6.146;2022-10-17T13:10:36;26.65;;;14.95;;
31537;SDS011;18147;51.952;6.146;2022-10-17T13:13:04;22.48;;;13.88;;
31537;SDS011;18147;51.952;6.146;2022-10-17T13:15:30;24.48;;;12.35;;
31537;SDS011;18147;51.952;6.146;2022-10-17T13:17:57;19.10;;;11.95;;
31537;SDS011;18147;51.952;6.146;2022-10-17T13:20:24;25.67;;;12.88;;
31537;SDS011;18147;51.952;6.146;2022-10-17T13:22:52;28.88;;;13.45;;
31537;SDS011;18147;51.952;6.146;2022-10-17T13:25:19;23.33;;;12.73;;
31537;SDS011;18147;51.952;6.146;2022-10-17T13:27:46;18.92;;;12.40;;
31537;SDS011;18147;51.952;6.146;2022-10-17T13:30:22;17.73;;;12.23;;
31537;SDS011;18147;51.952;6.146;2022-10-17T13:32:49;22.58;;;14.18;;
31537;SDS011;18147;51.952;6.146;2022-10-17T13:35:20;24.10;;;13.93;;
31537;SDS011;18147;51.952;6.146;2022-10-17T13:37:48;21.58;;;13.45;;
31537;SDS011;18147;51.952;6.146;2022-10-17T13:40:16;25.63;;;11.95;;
31537;SDS011;18147;51.952;6.146;2022-10-17T13:42:47;20.92;;;11.27;;
31537;SDS011;18147;51.952;6.146;2022-10-17T13:45:33;25.48;;;12.00;;
31537;SDS011;18147;51.952;6.146;2022-10-17T13:48:02;19.98;;;11.40;;
31537;SDS011;18147;51.952;6.146;2022-10-17T13:50:39;22.15;;;11.43;;
31537;SDS011;18147;51.952;6.146;2022-10-17T13:53:06;22.85;;;11.38;;
31537;SDS011;18147;51.952;6.146;2022-10-17T13:56:18;23.10;;;12.60;;
31537;SDS011;18147;51.952;6.146;2022-10-17T13:58:44;21.27;;;11.70;;
31537;SDS011;18147;51.952;6.146;2022-10-17T14:01:14;20.30;;;11.27;;
31537;SDS011;18147;51.952;6.146;2022-10-17T14:03:44;18.40;;;11.73;;
31537;SDS011;18147;51.952;6.146;2022-10-17T14:06:12;21.33;;;11.70;;
31537;SDS011;18147;51.952;6.146;2022-10-17T14:11:41;21.73;;;11.65;;
31537;SDS011;18147;51.952;6.146;2022-10-17T14:14:15;28.20;;;12.63;;
31537;SDS011;18147;51.952;6.146;2022-10-17T14:16:44;25.05;;;12.15;;
31537;SDS011;18147;51.952;6.146;2022-10-17T14:21:52;19.33;;;11.80;;
31537;SDS011;18147;51.952;6.146;2022-10-17T14:26:48;21.70;;;11.90;;
31537;SDS011;18147;51.952;6.146;2022-10-17T14:29:22;21.92;;;13.70;;
31537;SDS011;18147;51.952;6.146;2022-10-17T14:31:56;20.27;;;12.02;;
31537;SDS011;18147;51.952;6.146;2022-10-17T14:34:26;26.30;;;12.82;;
31537;SDS011;18147;51.952;6.146;2022-10-17T14:36:55;24.58;;;13.00;;
31537;SDS011;18147;51.952;6.146;2022-10-17T14:39:23;22.80;;;13.30;;
31537;SDS011;18147;51.952;6.146;2022-10-17T14:41:51;24.88;;;13.00;;
31537;SDS011;18147;51.952;6.146;2022-10-17T14:46:52;24.40;;;13.90;;
31537;SDS011;18147;51.952;6.146;2022-10-17T14:49:35;21.42;;;13.88;;
31537;SDS011;18147;51.952;6.146;2022-10-17T14:52:21;34.08;;;13.60;;
31537;SDS011;18147;51.952;6.146;2022-10-17T14:54:50;25.10;;;14.30;;
31537;SDS011;18147;51.952;6.146;2022-10-17T14:57:17;26.73;;;14.38;;
31537;SDS011;18147;51.952;6.146;2022-10-17T14:59:57;21.27;;;14.75;;
31537;SDS011;18147;51.952;6.146;2022-10-17T15:02:23;18.75;;;12.70;;
31537;SDS011;18147;51.952;6.146;2022-10-17T15:04:51;22.90;;;14.40;;
31537;SDS011;18147;51.952;6.146;2022-10-17T15:07:17;24.08;;;13.68;;
31537;SDS011;18147;51.952;6.146;2022-10-17T15:09:46;23.65;;;13.63;;
31537;SDS011;18147;51.952;6.146;2022-10-17T15:12:13;27.08;;;13.50;;
31537;SDS011;18147;51.952;6.146;2022-10-17T15:14:41;21.17;;;13.25;;
31537;SDS011;18147;51.952;6.146;2022-10-17T15:17:14;25.02;;;14.27;;
31537;SDS011;18147;51.952;6.146;2022-10-17T15:19:43;23.35;;;14.55;;
31537;SDS011;18147;51.952;6.146;2022-10-17T15:22:08;30.77;;;15.82;;
31537;SDS011;18147;51.952;6.146;2022-10-17T15:24:34;29.23;;;15.40;;
31537;SDS011;18147;51.952;6.146;2022-10-17T15:26:59;27.40;;;14.90;;
31537;SDS011;18147;51.952;6.146;2022-10-17T15:29:25;23.33;;;15.25;;
31537;SDS011;18147;51.952;6.146;2022-10-17T15:31:51;23.38;;;14.50;;
31537;SDS011;18147;51.952;6.146;2022-10-17T15:34:16;26.40;;;15.88;;
31537;SDS011;18147;51.952;6.146;2022-10-17T15:36:42;25.67;;;16.05;;
31537;SDS011;18147;51.952;6.146;2022-10-17T15:39:13;26.85;;;16.20;;
31537;SDS011;18147;51.952;6.146;2022-10-17T15:41:38;29.40;;;17.77;;
31537;SDS011;18147;51.952;6.146;2022-10-17T15:44:04;29.02;;;15.48;;
31537;SDS011;18147;51.952;6.146;2022-10-17T15:46:31;28.00;;;16.38;;
31537;SDS011;18147;51.952;6.146;2022-10-17T15:49:05;25.10;;;15.52;;
31537;SDS011;18147;51.952;6.146;2022-10-17T15:51:34;26.08;;;16.40;;
31537;SDS011;18147;51.952;6.146;2022-10-17T15:53:59;23.88;;;15.90;;
31537;SDS011;18147;51.952;6.146;2022-10-17T15:56:27;30.05;;;17.08;;
31537;SDS011;18147;51.952;6.146;2022-10-17T15:58:54;31.02;;;17.45;;
31537;SDS011;18147;51.952;6.146;2022-10-17T16:01:21;26.08;;;16.80;;
31537;SDS011;18147;51.952;6.146;2022-10-17T16:03:50;27.58;;;17.23;;
31537;SDS011;18147;51.952;6.146;2022-10-17T16:06:16;30.95;;;17.90;;
31537;SDS011;18147;51.952;6.146;2022-10-17T16:08:43;36.90;;;18.83;;
31537;SDS011;18147;51.952;6.146;2022-10-17T16:11:11;32.88;;;19.55;;
31537;SDS011;18147;51.952;6.146;2022-10-17T16:13:41;39.70;;;21.15;;
31537;SDS011;18147;51.952;6.146;2022-10-17T16:16:12;32.63;;;20.40;;
31537;SDS011;18147;51.952;6.146;2022-10-17T16:18:38;32.92;;;20.50;;
31537;SDS011;18147;51.952;6.146;2022-10-17T16:21:03;33.50;;;19.92;;
31537;SDS011;18147;51.952;6.146;2022-10-17T16:23:29;34.80;;;20.27;;
31537;SDS011;18147;51.952;6.146;2022-10-17T16:25:54;39.33;;;22.80;;
31537;SDS011;18147;51.952;6.146;2022-10-17T16:28:20;37.33;;;21.08;;
31537;SDS011;18147;51.952;6.146;2022-10-17T16:30:45;40.22;;;22.00;;